createdAt,value
2022-12-01T00:01:02.655Z,95.02
2022-12-01T00:03:33.184Z,95.19
2022-12-01T00:06:15.424Z,96.02
2022-12-01T00:09:01.253Z,95.54
2022-12-01T00:11:27.738Z,95.38
2022-12-01T00:13:54.113Z,95.58
2022-12-01T00:16:21.015Z,96.20
2022-12-01T00:18:50.879Z,95.73
2022-12-01T00:21:19.332Z,95.22
2022-12-01T00:23:47.444Z,95.22
2022-12-01T00:26:15.210Z,96.07
2022-12-01T00:28:41.717Z,96.41
2022-12-01T00:31:09.242Z,96.05
2022-12-01T00:33:35.723Z,95.86
2022-12-01T00:36:02.258Z,95.73
2022-12-01T00:38:28.744Z,95.46
2022-12-01T00:40:55.401Z,95.23
2022-12-01T00:43:21.818Z,94.60
2022-12-01T00:45:48.358Z,94.04
2022-12-01T00:48:14.897Z,94.30
2022-12-01T00:50:41.684Z,95.36
2022-12-01T00:53:08.501Z,93.85
2022-12-01T00:55:35.189Z,94.29
2022-12-01T00:58:01.581Z,95.35
2022-12-01T01:03:07.601Z,94.40
2022-12-01T01:05:42.014Z,95.39
2022-12-01T01:08:13.620Z,95.05
2022-12-01T01:10:41.545Z,95.76
2022-12-01T01:13:08.620Z,95.24
2022-12-01T01:15:35.654Z,95.10
2022-12-01T01:18:02.168Z,94.94
2022-12-01T01:20:29.053Z,96.38
2022-12-01T01:22:55.623Z,96.63
2022-12-01T01:25:22.748Z,96.19
2022-12-01T01:27:49.321Z,95.26
2022-12-01T01:30:16.131Z,95.68
2022-12-01T01:32:42.473Z,95.88
2022-12-01T01:35:08.959Z,95.97
2022-12-01T01:37:35.292Z,96.13
2022-12-01T01:40:01.693Z,95.15
2022-12-01T01:42:28.035Z,96.02
2022-12-01T01:44:58.709Z,95.52
2022-12-01T01:47:27.702Z,96.30
2022-12-01T01:49:56.666Z,97.01
2022-12-01T01:52:23.550Z,96.79
2022-12-01T01:54:54.595Z,96.57
2022-12-01T01:57:26.591Z,96.91
2022-12-01T02:00:01.221Z,96.61
2022-12-01T02:02:27.696Z,96.21
2022-12-01T02:05:01.588Z,96.73
2022-12-01T02:07:28.550Z,97.04
2022-12-01T02:09:55.601Z,96.05
2022-12-01T02:12:41.120Z,96.53
2022-12-01T02:15:33.401Z,95.58
2022-12-01T02:18:35.347Z,96.25
2022-12-01T02:21:29.292Z,97.11
2022-12-01T02:24:07.568Z,97.08
2022-12-01T02:26:57.682Z,96.69
2022-12-01T02:29:42.813Z,97.35
2022-12-01T02:32:22.001Z,97.85
2022-12-01T02:35:05.578Z,97.39
2022-12-01T02:37:35.198Z,96.70
2022-12-01T02:40:20.443Z,97.17
2022-12-01T02:43:02.197Z,97.37
2022-12-01T02:45:40.550Z,97.30
2022-12-01T02:48:19.126Z,96.84
2022-12-01T02:50:46.425Z,97.09
2022-12-01T02:53:18.534Z,97.86
2022-12-01T02:55:55.794Z,98.26
2022-12-01T02:58:22.230Z,97.27
2022-12-01T03:01:01.205Z,96.75
2022-12-01T03:03:45.022Z,97.80
2022-12-01T03:06:22.694Z,97.13
2022-12-01T03:09:15.686Z,98.38
2022-12-01T03:11:51.442Z,97.58
2022-12-01T03:14:36.144Z,97.99
2022-12-01T03:17:11.678Z,98.61
2022-12-01T03:19:47.168Z,98.87
2022-12-01T03:22:24.691Z,98.49
2022-12-01T03:24:55.142Z,97.13
2022-12-01T03:27:26.850Z,96.48
2022-12-01T03:29:57.657Z,96.78
2022-12-01T03:32:29.503Z,97.17
2022-12-01T03:35:10.923Z,97.66
2022-12-01T03:37:42.615Z,96.92
2022-12-01T03:40:14.508Z,97.15
2022-12-01T03:43:03.972Z,96.48
2022-12-01T03:45:30.259Z,96.29
2022-12-01T03:47:57.231Z,96.31
2022-12-01T03:50:29.891Z,97.34
2022-12-01T03:53:19.127Z,97.30
2022-12-01T03:55:51.880Z,97.22
2022-12-01T03:58:30.596Z,96.52
2022-12-01T04:00:58.398Z,95.93
2022-12-01T04:03:26.218Z,96.64
2022-12-01T04:05:52.707Z,95.22
2022-12-01T04:08:19.053Z,95.69
2022-12-01T04:10:45.481Z,95.87
2022-12-01T04:13:16.792Z,95.80
2022-12-01T04:15:43.608Z,95.46
2022-12-01T04:18:10.023Z,94.64
2022-12-01T04:20:36.363Z,96.03
2022-12-01T04:23:02.700Z,95.87
2022-12-01T04:25:29.035Z,95.64
2022-12-01T04:27:55.345Z,96.19
2022-12-01T04:30:21.790Z,96.46
2022-12-01T04:32:48.167Z,96.13
2022-12-01T04:35:14.486Z,96.21
2022-12-01T04:37:41.016Z,96.99
2022-12-01T04:40:08.214Z,97.13
2022-12-01T04:42:34.601Z,97.25
2022-12-01T04:45:00.932Z,95.84
2022-12-01T04:47:27.326Z,96.28
2022-12-01T04:49:54.386Z,97.29
2022-12-01T04:52:20.719Z,96.66
2022-12-01T04:54:47.213Z,97.73
2022-12-01T04:57:13.618Z,97.59
2022-12-01T04:59:40.085Z,97.81
2022-12-01T05:02:06.555Z,97.83
2022-12-01T05:04:34.101Z,97.92
2022-12-01T05:07:00.445Z,97.84
2022-12-01T05:09:26.834Z,97.95
2022-12-01T05:11:53.182Z,96.83
2022-12-01T05:14:19.513Z,97.50
2022-12-01T05:16:45.908Z,97.38
2022-12-01T05:19:31.149Z,97.50
2022-12-01T05:21:57.542Z,97.66
2022-12-01T05:24:23.902Z,97.44
2022-12-01T05:26:50.344Z,97.81
2022-12-01T05:29:17.141Z,98.06
2022-12-01T05:31:45.583Z,97.29
2022-12-01T05:34:12.011Z,98.57
2022-12-01T05:36:38.373Z,97.33
2022-12-01T05:39:05.446Z,97.77
2022-12-01T05:41:32.072Z,98.35
2022-12-01T05:43:58.513Z,98.68
2022-12-01T05:46:24.966Z,98.02
2022-12-01T05:48:51.356Z,97.53
2022-12-01T05:51:17.966Z,97.82
2022-12-01T05:53:44.649Z,98.23
2022-12-01T05:56:11.152Z,97.64
2022-12-01T05:58:37.719Z,97.40
2022-12-01T06:01:04.243Z,98.12
2022-12-01T06:03:30.815Z,98.47
2022-12-01T06:05:57.152Z,97.61
2022-12-01T06:08:23.554Z,97.78
2022-12-01T06:10:49.956Z,97.19
2022-12-01T06:13:16.378Z,97.40
2022-12-01T06:15:42.809Z,98.28
2022-12-01T06:18:09.352Z,97.94
2022-12-01T06:20:35.856Z,98.92
2022-12-01T06:23:02.683Z,99.01
2022-12-01T06:25:29.085Z,97.76
2022-12-01T06:27:57.444Z,98.68
2022-12-01T06:30:24.954Z,97.57
2022-12-01T06:32:51.370Z,98.42
2022-12-01T06:35:17.794Z,98.18
2022-12-01T06:37:44.170Z,98.40
2022-12-01T06:40:11.409Z,97.40
2022-12-01T06:42:37.757Z,96.90
2022-12-01T06:45:04.410Z,96.69
2022-12-01T06:47:30.885Z,97.33
2022-12-01T06:49:57.366Z,96.64
2022-12-01T06:52:23.826Z,96.01
2022-12-01T06:54:50.248Z,96.97
2022-12-01T06:57:17.028Z,96.60
2022-12-01T06:59:43.784Z,96.79
2022-12-01T07:02:11.200Z,96.73
2022-12-01T07:04:37.593Z,95.70
2022-12-01T07:07:07.086Z,96.68
2022-12-01T07:09:33.796Z,96.73
2022-12-01T07:12:00.181Z,96.68
2022-12-01T07:14:27.489Z,95.12
2022-12-01T07:16:53.897Z,94.92
2022-12-01T07:19:20.484Z,95.07
2022-12-01T07:21:46.863Z,95.96
2022-12-01T07:24:13.610Z,95.56
2022-12-01T07:26:41.170Z,95.09
2022-12-01T07:29:09.109Z,94.64
2022-12-01T07:31:37.787Z,93.87
2022-12-01T07:34:05.179Z,93.56
2022-12-01T07:36:31.730Z,95.02
2022-12-01T07:38:58.294Z,93.66
2022-12-01T07:41:24.747Z,95.23
2022-12-01T07:43:51.149Z,95.17
2022-12-01T07:46:24.193Z,94.88
2022-12-01T07:48:52.279Z,94.16
2022-12-01T07:51:18.960Z,94.72
2022-12-01T07:53:46.875Z,94.69
2022-12-01T07:56:13.609Z,94.12
2022-12-01T07:58:40.015Z,93.73
2022-12-01T08:01:18.080Z,92.79
2022-12-01T08:03:44.902Z,93.47
2022-12-01T08:06:12.231Z,92.48
2022-12-01T08:08:40.587Z,92.43
2022-12-01T08:11:12.249Z,92.97
2022-12-01T08:13:39.229Z,92.98
2022-12-01T08:16:08.069Z,91.41
2022-12-01T08:18:35.786Z,92.51
2022-12-01T08:21:02.658Z,91.35
2022-12-01T08:23:29.002Z,91.01
2022-12-01T08:25:55.482Z,89.80
2022-12-01T08:28:21.990Z,89.79
2022-12-01T08:30:48.500Z,89.20
2022-12-01T08:33:14.850Z,87.47
2022-12-01T08:35:41.211Z,87.75
2022-12-01T08:38:07.617Z,87.76
2022-12-01T08:40:34.046Z,87.70
2022-12-01T08:43:00.484Z,86.76
2022-12-01T08:45:27.001Z,86.33
2022-12-01T08:47:54.594Z,86.63
2022-12-01T08:50:21.050Z,85.63
2022-12-01T08:52:47.463Z,84.23
2022-12-01T08:55:14.134Z,81.30
2022-12-01T08:57:40.561Z,80.46
2022-12-01T09:00:07.707Z,77.85
2022-12-01T09:02:34.596Z,72.60
2022-12-01T09:05:01.037Z,72.94
2022-12-01T09:07:27.465Z,71.94
2022-12-01T09:09:53.978Z,73.11
2022-12-01T09:12:20.325Z,75.43
2022-12-01T09:14:49.712Z,76.88
2022-12-01T09:17:17.280Z,78.66
2022-12-01T09:19:44.345Z,78.29
2022-12-01T09:22:11.752Z,78.47
2022-12-01T09:24:38.430Z,78.38
2022-12-01T09:27:05.272Z,77.64
2022-12-01T09:29:32.185Z,75.95
2022-12-01T09:31:59.925Z,75.85
2022-12-01T09:34:27.768Z,74.45
2022-12-01T09:36:58.501Z,74.09
2022-12-01T09:39:25.720Z,74.36
2022-12-01T09:41:55.372Z,74.13
2022-12-01T09:44:45.383Z,72.61
2022-12-01T09:47:18.830Z,70.55
2022-12-01T09:50:15.269Z,72.51
2022-12-01T09:52:46.037Z,73.72
2022-12-01T09:55:18.794Z,74.60
2022-12-01T09:57:50.683Z,74.18
2022-12-01T10:00:24.336Z,73.44
2022-12-01T10:02:56.601Z,71.79
2022-12-01T10:05:26.870Z,66.08
2022-12-01T10:08:01.304Z,59.80
2022-12-01T10:10:30.841Z,52.62
2022-12-01T10:12:57.662Z,51.04
2022-12-01T10:15:45.710Z,48.20
2022-12-01T10:18:33.977Z,47.47
2022-12-01T10:21:42.882Z,44.40
2022-12-01T10:24:17.778Z,43.03
2022-12-01T10:27:05.827Z,42.15
2022-12-01T10:29:47.721Z,43.04
2022-12-01T10:32:21.476Z,45.36
2022-12-01T10:34:48.203Z,47.79
2022-12-01T10:37:24.301Z,46.56
2022-12-01T10:39:52.797Z,49.34
2022-12-01T10:42:35.993Z,53.02
2022-12-01T10:45:07.175Z,56.50
2022-12-01T10:47:34.012Z,60.93
2022-12-01T10:50:00.381Z,64.25
2022-12-01T10:52:38.559Z,66.47
2022-12-01T10:55:23.939Z,67.69
2022-12-01T10:57:52.304Z,70.24
2022-12-01T11:03:22.080Z,72.86
2022-12-01T11:05:54.698Z,73.67
2022-12-01T11:08:29.655Z,74.60
2022-12-01T11:10:56.730Z,75.32
2022-12-01T11:13:30.234Z,75.54
2022-12-01T11:16:02.140Z,75.94
2022-12-01T11:18:33.404Z,76.07
2022-12-01T11:21:14.925Z,76.03
2022-12-01T11:23:49.299Z,76.94
2022-12-01T11:26:23.731Z,77.19
2022-12-01T11:29:24.510Z,78.55
2022-12-01T11:31:52.963Z,78.58
2022-12-01T11:34:24.467Z,79.75
2022-12-01T11:36:54.430Z,79.50
2022-12-01T11:39:42.376Z,79.16
2022-12-01T11:42:11.672Z,78.89
2022-12-01T11:44:54.015Z,78.58
2022-12-01T11:47:24.578Z,80.17
2022-12-01T11:49:54.525Z,79.93
2022-12-01T11:52:32.369Z,80.09
2022-12-01T11:55:21.039Z,79.28
2022-12-01T11:57:51.107Z,80.54
2022-12-01T12:00:19.649Z,80.21
2022-12-01T12:03:19.207Z,80.06
2022-12-01T12:06:39.337Z,80.19
2022-12-01T12:09:15.040Z,80.86
2022-12-01T12:12:33.311Z,80.22
2022-12-01T12:15:13.002Z,79.26
2022-12-01T12:17:51.354Z,79.84
2022-12-01T12:20:24.762Z,79.48
2022-12-01T12:23:13.052Z,79.35
2022-12-01T12:26:17.118Z,79.95
2022-12-01T12:29:14.157Z,79.83
2022-12-01T12:32:05.634Z,81.04
2022-12-01T12:34:31.893Z,81.02
2022-12-01T12:37:20.526Z,81.66
2022-12-01T12:40:13.796Z,81.88
2022-12-01T12:42:42.882Z,81.54
2022-12-01T12:45:35.769Z,81.46
2022-12-01T12:48:28.511Z,81.46
2022-12-01T12:51:31.639Z,82.27
2022-12-01T12:54:23.519Z,81.57
2022-12-01T12:57:05.653Z,81.66
2022-12-01T12:59:40.823Z,81.78
2022-12-01T13:02:18.644Z,81.46
2022-12-01T13:05:02.410Z,80.60
2022-12-01T13:07:37.941Z,81.65
2022-12-01T13:10:29.372Z,80.94
2022-12-01T13:13:31.879Z,80.76
2022-12-01T13:16:00.806Z,81.38
2022-12-01T13:18:42.581Z,81.79
2022-12-01T13:21:16.313Z,81.43
2022-12-01T13:23:45.316Z,82.03
2022-12-01T13:26:12.599Z,82.66
2022-12-01T13:28:48.989Z,82.81
2022-12-01T13:31:16.919Z,82.86
2022-12-01T13:33:55.329Z,82.93
2022-12-01T13:36:45.727Z,82.68
2022-12-01T13:39:21.529Z,83.72
2022-12-01T13:42:01.331Z,83.43
2022-12-01T13:44:38.532Z,83.06
2022-12-01T13:47:24.892Z,83.86
2022-12-01T13:49:53.187Z,83.20
2022-12-01T13:52:22.652Z,83.24
2022-12-01T13:55:07.473Z,82.59
2022-12-01T13:57:36.877Z,82.45
2022-12-01T14:00:21.480Z,83.22
2022-12-01T14:03:16.730Z,82.16
2022-12-01T14:06:02.084Z,81.66
2022-12-01T14:08:31.373Z,82.45
2022-12-01T14:11:08.095Z,83.47
2022-12-01T14:13:50.391Z,82.95
2022-12-01T14:16:17.066Z,83.31
2022-12-01T14:18:51.741Z,83.13
2022-12-01T14:21:47.202Z,82.83
2022-12-01T14:24:35.615Z,83.00
2022-12-01T14:27:02.929Z,82.42
2022-12-01T14:29:33.482Z,82.26
2022-12-01T14:31:59.770Z,82.05
2022-12-01T14:34:30.280Z,83.65
2022-12-01T14:37:24.959Z,84.15
2022-12-01T14:40:13.456Z,83.55
2022-12-01T14:43:02.487Z,84.62
2022-12-01T14:45:41.290Z,84.03
2022-12-01T14:48:18.427Z,84.15
2022-12-01T14:50:52.148Z,84.67
2022-12-01T14:53:31.827Z,85.02
2022-12-01T14:56:24.716Z,85.82
2022-12-01T14:59:13.672Z,85.11
2022-12-01T15:01:40.878Z,85.03
2022-12-01T15:04:07.433Z,84.68
2022-12-01T15:06:35.869Z,84.72
2022-12-01T15:11:56.883Z,83.87
2022-12-01T15:14:47.512Z,82.87
2022-12-01T15:17:32.556Z,82.78
2022-12-01T15:19:58.933Z,82.57
2022-12-01T15:22:30.697Z,83.07
2022-12-01T15:25:15.085Z,83.21
2022-12-01T15:27:43.369Z,83.91
2022-12-01T15:30:14.574Z,83.64
2022-12-01T15:32:45.586Z,84.38
2022-12-01T15:35:23.541Z,86.08
2022-12-01T15:37:51.440Z,84.81
2022-12-01T15:43:20.332Z,85.57
2022-12-01T15:45:56.125Z,85.08
2022-12-01T15:48:32.037Z,84.65
2022-12-01T15:51:10.147Z,84.66
2022-12-01T15:53:39.860Z,85.35
2022-12-01T15:56:08.736Z,85.62
2022-12-01T15:58:47.200Z,85.57
2022-12-01T16:01:21.420Z,85.29
2022-12-01T16:03:58.348Z,85.07
2022-12-01T16:06:33.361Z,85.33
2022-12-01T16:09:07.308Z,86.02
2022-12-01T16:11:33.951Z,85.73
2022-12-01T16:14:21.372Z,86.08
2022-12-01T16:16:49.491Z,86.19
2022-12-01T16:19:18.950Z,85.57
2022-12-01T16:21:54.328Z,86.32
2022-12-01T16:24:27.254Z,85.53
2022-12-01T16:26:58.153Z,85.71
2022-12-01T16:29:26.019Z,85.57
2022-12-01T16:32:13.030Z,85.71
2022-12-01T16:34:47.172Z,86.21
2022-12-01T16:37:14.476Z,85.76
2022-12-01T16:39:40.853Z,85.59
2022-12-01T16:42:12.018Z,86.31
2022-12-01T16:44:38.393Z,85.79
2022-12-01T16:47:12.750Z,86.82
2022-12-01T16:49:39.375Z,85.83
2022-12-01T16:52:22.087Z,85.85
2022-12-01T16:54:52.261Z,86.51
2022-12-01T16:57:18.732Z,86.93
2022-12-01T16:59:45.290Z,86.96
2022-12-01T17:02:11.805Z,86.20
2022-12-01T17:04:38.172Z,86.71
2022-12-01T17:07:04.742Z,86.91
2022-12-01T17:09:31.058Z,86.46
2022-12-01T17:11:57.487Z,86.59
2022-12-01T17:14:24.263Z,86.83
2022-12-01T17:16:50.946Z,87.03
2022-12-01T17:19:17.575Z,87.76
2022-12-01T17:21:43.915Z,88.19
2022-12-01T17:24:10.300Z,87.89
2022-12-01T17:26:36.738Z,87.95
2022-12-01T17:29:03.571Z,88.66
2022-12-01T17:31:30.052Z,88.43
2022-12-01T17:33:56.497Z,88.75
2022-12-01T17:36:22.871Z,87.30
2022-12-01T17:38:50.376Z,88.30
2022-12-01T17:41:21.816Z,87.80
2022-12-01T17:43:48.261Z,87.32
2022-12-01T17:46:15.054Z,88.11
2022-12-01T17:48:43.597Z,87.53
2022-12-01T17:51:12.079Z,88.13
2022-12-01T17:53:41.522Z,88.50
2022-12-01T17:56:10.015Z,88.79
2022-12-01T17:58:36.622Z,88.34
2022-12-01T18:01:04.290Z,88.10
2022-12-01T18:03:30.757Z,87.90
2022-12-01T18:06:01.762Z,87.62
2022-12-01T18:08:30.258Z,87.62
2022-12-01T18:11:01.027Z,87.52
2022-12-01T18:13:27.759Z,86.95
2022-12-01T18:15:54.212Z,86.62
2022-12-01T18:18:20.932Z,86.48
2022-12-01T18:20:47.398Z,86.37
2022-12-01T18:23:13.909Z,86.10
2022-12-01T18:25:40.870Z,85.94
2022-12-01T18:28:07.817Z,85.54
2022-12-01T18:30:34.762Z,85.15
2022-12-01T18:33:01.713Z,84.86
2022-12-01T18:35:31.951Z,85.38
2022-12-01T18:37:58.706Z,84.36
2022-12-01T18:40:25.166Z,85.60
2022-12-01T18:42:51.599Z,85.67
2022-12-01T18:45:21.262Z,85.39
2022-12-01T18:47:47.940Z,85.24
2022-12-01T18:50:14.368Z,85.77
2022-12-01T18:52:40.781Z,85.18
2022-12-01T18:55:07.448Z,85.52
2022-12-01T18:57:33.898Z,85.43
2022-12-01T19:00:00.242Z,85.50
2022-12-01T19:02:26.766Z,85.47
2022-12-01T19:04:53.325Z,85.95
2022-12-01T19:07:20.711Z,86.32
2022-12-01T19:09:49.652Z,85.93
2022-12-01T19:12:16.214Z,85.71
2022-12-01T19:14:42.596Z,86.06
2022-12-01T19:17:08.986Z,85.24
2022-12-01T19:19:37.550Z,86.45
2022-12-01T19:22:04.221Z,85.40
2022-12-01T19:24:30.658Z,85.71
2022-12-01T19:26:57.104Z,84.82
2022-12-01T19:29:23.642Z,85.03
2022-12-01T19:31:50.032Z,85.50
2022-12-01T19:34:16.473Z,84.30
2022-12-01T19:36:42.901Z,85.37
2022-12-01T19:39:09.324Z,84.86
2022-12-01T19:41:35.826Z,84.96
2022-12-01T19:44:02.242Z,84.93
2022-12-01T19:46:29.782Z,85.47
2022-12-01T19:49:00.260Z,85.27
2022-12-01T19:51:30.599Z,84.25
2022-12-01T19:53:57.446Z,85.94
2022-12-01T19:56:24.603Z,84.80
2022-12-01T19:58:51.158Z,83.93
2022-12-01T20:01:19.148Z,85.77
2022-12-01T20:03:47.717Z,85.98
2022-12-01T20:06:17.635Z,86.05
2022-12-01T20:08:44.684Z,86.07
2022-12-01T20:11:11.804Z,86.25
2022-12-01T20:13:39.817Z,86.35
2022-12-01T20:16:08.270Z,86.39
2022-12-01T20:18:35.878Z,86.25
2022-12-01T20:21:03.226Z,86.04
2022-12-01T20:23:30.114Z,85.82
2022-12-01T20:26:01.514Z,86.22
2022-12-01T20:28:27.882Z,86.83
2022-12-01T20:30:54.488Z,86.35
2022-12-01T20:33:21.138Z,85.71
2022-12-01T20:35:47.506Z,86.29
2022-12-01T20:38:13.937Z,86.48
2022-12-01T20:40:40.450Z,86.58
2022-12-01T20:43:06.813Z,87.51
2022-12-01T20:45:33.404Z,87.82
2022-12-01T20:47:59.775Z,87.54
2022-12-01T20:50:26.210Z,87.85
2022-12-01T20:52:52.573Z,89.16
2022-12-01T20:55:19.026Z,88.90
2022-12-01T20:57:45.824Z,89.37
2022-12-01T21:00:13.555Z,88.90
2022-12-01T21:02:40.215Z,89.65
2022-12-01T21:05:06.788Z,89.31
2022-12-01T21:07:33.198Z,89.93
2022-12-01T21:09:59.618Z,89.08
2022-12-01T21:12:47.848Z,89.15
2022-12-01T21:15:29.188Z,89.44
2022-12-01T21:17:59.246Z,89.38
2022-12-01T21:20:27.939Z,89.01
2022-12-01T21:22:59.839Z,89.35
2022-12-01T21:25:26.337Z,90.33
2022-12-01T21:27:56.458Z,90.29
2022-12-01T21:30:29.631Z,90.72
2022-12-01T21:33:15.609Z,90.76
2022-12-01T21:35:41.994Z,91.08
2022-12-01T21:38:12.267Z,91.80
2022-12-01T21:40:41.926Z,91.71
2022-12-01T21:43:23.207Z,92.23
2022-12-01T21:45:53.689Z,92.27
2022-12-01T21:48:24.470Z,91.90
2022-12-01T21:50:59.392Z,91.51
2022-12-01T21:53:32.103Z,92.07
2022-12-01T21:55:58.460Z,92.44
2022-12-01T21:58:28.079Z,93.30
2022-12-01T22:00:59.126Z,92.77
2022-12-01T22:03:31.654Z,92.83
2022-12-01T22:06:28.252Z,93.28
2022-12-01T22:08:50.599Z,92.66
2022-12-01T22:11:22.403Z,92.85
2022-12-01T22:13:51.534Z,92.97
2022-12-01T22:16:30.190Z,93.28
2022-12-01T22:19:02.384Z,93.42
2022-12-01T22:21:34.926Z,93.29
2022-12-01T22:24:19.994Z,93.42
2022-12-01T22:26:49.526Z,93.25
2022-12-01T22:29:33.717Z,93.45
2022-12-01T22:32:12.259Z,93.70
2022-12-01T22:34:40.030Z,93.35
2022-12-01T22:37:16.511Z,93.54
2022-12-01T22:39:43.081Z,93.32
2022-12-01T22:42:19.041Z,93.18
2022-12-01T22:44:45.539Z,93.76
2022-12-01T22:47:12.219Z,93.77
2022-12-01T22:49:38.562Z,94.10
2022-12-01T22:52:18.746Z,93.87
2022-12-01T22:54:48.862Z,93.99
2022-12-01T22:57:35.168Z,93.65
2022-12-01T23:00:13.939Z,93.71
2022-12-01T23:02:40.487Z,94.04
2022-12-01T23:05:28.769Z,93.98
2022-12-01T23:07:56.977Z,94.35
2022-12-01T23:10:30.290Z,94.08
2022-12-01T23:13:00.430Z,94.08
2022-12-01T23:15:36.205Z,94.51
2022-12-01T23:18:13.506Z,94.12
2022-12-01T23:20:41.917Z,93.92
2022-12-01T23:23:17.833Z,93.82
2022-12-01T23:25:45.880Z,93.58
2022-12-01T23:28:13.558Z,94.06
2022-12-01T23:30:42.072Z,94.17
2022-12-01T23:33:08.370Z,94.30
2022-12-01T23:35:55.124Z,94.02
2022-12-01T23:38:29.571Z,93.64
2022-12-01T23:40:59.010Z,94.16
2022-12-01T23:43:28.625Z,93.81
2022-12-01T23:46:19.661Z,93.57
2022-12-01T23:48:49.370Z,94.25
2022-12-01T23:51:19.959Z,94.49
2022-12-01T23:53:46.615Z,94.01
2022-12-01T23:56:24.709Z,94.77
2022-12-01T23:58:52.692Z,94.24
